Dallas, Texas
Traffic Map
Current Weather Conditions
Dallas, Texas
Broken Clouds
Broken Clouds
28°
Feels Like: 29°
Wind Chill: 28° Ceiling: 17000
Heat Index: 29° Visibility: 10mi
Dew Point: 18° Wind: 0mph
Humidity: 54% Direction: ° ()
Pressure: 30.06in Gusts: 0mph
Raw Report DataKDAL 300053Z 00000KT 10SM SCT120 BKN170 BKN200 28/18 A3006 RMK AO2 SLP171 T02780178
Traffic Incident Summary
Active as of:
Severity:
Category:
InformationThere was an issue retrieving the traffic information for this location. Please try a different location or try again shortly.
Advertisements
Track Severe Weather on mobile